createdAt,value
2019-06-10T00:02:10.766Z,17.53
2019-06-10T00:04:42.344Z,17.35
2019-06-10T00:07:12.137Z,17.40
2019-06-10T00:09:42.603Z,17.40
2019-06-10T00:12:12.890Z,17.41
2019-06-10T00:14:43.085Z,17.40
2019-06-10T00:17:14.782Z,17.40
2019-06-10T00:19:44.991Z,17.37
2019-06-10T00:22:14.805Z,17.40
2019-06-10T00:25:05.801Z,17.25
2019-06-10T00:27:36.376Z,17.18
2019-06-10T00:30:08.133Z,17.18
2019-06-10T00:32:41.043Z,17.21
2019-06-10T00:35:12.342Z,17.14
2019-06-10T00:37:42.438Z,17.08
2019-06-10T00:40:14.221Z,16.98
2019-06-10T00:42:44.361Z,17.22
2019-06-10T00:45:17.993Z,17.14
2019-06-10T00:47:47.920Z,17.14
2019-06-10T00:50:18.203Z,17.13
2019-06-10T00:52:48.215Z,17.26
2019-06-10T00:55:18.215Z,17.24
2019-06-10T00:57:50.997Z,17.24
2019-06-10T01:00:25.504Z,17.18
2019-06-10T01:02:52.563Z,17.21
2019-06-10T01:05:22.619Z,17.12
2019-06-10T01:07:52.573Z,17.12
2019-06-10T01:10:22.800Z,17.11
2019-06-10T01:12:53.312Z,17.07
2019-06-10T01:15:23.188Z,17.04
2019-06-10T01:17:53.443Z,16.97
2019-06-10T01:20:23.284Z,16.97
2019-06-10T01:22:55.621Z,17.00
2019-06-10T01:25:25.708Z,17.00
2019-06-10T01:27:55.650Z,16.98
2019-06-10T01:30:27.266Z,16.87
2019-06-10T01:32:57.265Z,16.87
2019-06-10T01:35:27.451Z,17.06
2019-06-10T01:37:57.325Z,16.93
2019-06-10T01:40:27.148Z,16.86
2019-06-10T01:42:57.494Z,16.88
2019-06-10T01:45:27.623Z,16.83
2019-06-10T01:47:57.454Z,16.89
2019-06-10T01:50:27.853Z,16.89
2019-06-10T01:52:57.765Z,16.74
2019-06-10T01:55:31.024Z,16.72
2019-06-10T01:58:00.960Z,16.86
2019-06-10T02:00:38.960Z,16.71
2019-06-10T02:03:11.607Z,16.83
2019-06-10T02:05:41.908Z,16.63
2019-06-10T02:08:14.531Z,16.63
2019-06-10T02:10:43.689Z,16.68
2019-06-10T02:13:32.435Z,16.55
2019-06-10T02:16:02.386Z,16.62
2019-06-10T02:18:32.410Z,16.62
2019-06-10T02:21:02.412Z,16.49
2019-06-10T02:23:32.265Z,16.45
2019-06-10T02:26:02.190Z,16.43
2019-06-10T02:28:32.527Z,16.43
2019-06-10T02:31:03.696Z,16.64
2019-06-10T02:33:36.448Z,16.64
2019-06-10T02:36:05.616Z,16.55
2019-06-10T02:38:39.597Z,16.55
2019-06-10T02:41:07.606Z,16.64
2019-06-10T02:43:39.030Z,16.51
2019-06-10T02:46:08.981Z,16.63
2019-06-10T02:48:39.544Z,16.53
2019-06-10T02:51:13.099Z,16.65
2019-06-10T02:53:43.584Z,16.65
2019-06-10T02:56:14.782Z,16.55
2019-06-10T02:58:45.332Z,16.51
2019-06-10T03:01:17.393Z,16.47
2019-06-10T03:03:49.675Z,16.55
2019-06-10T03:06:21.338Z,16.58
2019-06-10T03:08:54.602Z,16.58
2019-06-10T03:11:29.650Z,16.66
2019-06-10T03:13:53.977Z,16.69
2019-06-10T03:16:32.962Z,16.72
2019-06-10T03:19:03.135Z,16.64
2019-06-10T03:21:33.013Z,16.64
2019-06-10T03:24:04.040Z,16.70
2019-06-10T03:26:34.471Z,16.70
2019-06-10T03:29:04.383Z,16.69
2019-06-10T03:31:41.444Z,16.74
2019-06-10T03:34:08.502Z,16.82
2019-06-10T03:36:38.633Z,16.82
2019-06-10T03:39:09.586Z,16.88
2019-06-10T03:41:39.634Z,16.88
2019-06-10T03:44:09.698Z,16.88
2019-06-10T03:46:40.243Z,17.00
2019-06-10T03:49:12.561Z,17.02
2019-06-10T03:51:42.910Z,17.08
2019-06-10T03:54:13.217Z,17.07
2019-06-10T03:56:43.434Z,17.07
2019-06-10T03:59:13.762Z,17.04
2019-06-10T04:01:43.662Z,17.15
2019-06-10T04:04:13.546Z,17.15
2019-06-10T04:06:44.360Z,17.00
2019-06-10T04:09:14.519Z,17.13
2019-06-10T04:11:44.504Z,17.17
2019-06-10T04:14:14.409Z,17.16
2019-06-10T04:16:44.323Z,17.23
2019-06-10T04:19:14.289Z,17.23
2019-06-10T04:21:44.210Z,17.22
2019-06-10T04:24:14.629Z,17.15
2019-06-10T04:26:44.489Z,17.12
2019-06-10T04:29:14.539Z,17.24
2019-06-10T04:31:44.489Z,17.24
2019-06-10T04:34:14.378Z,17.24
2019-06-10T04:36:44.314Z,17.32
2019-06-10T04:39:14.425Z,17.37
2019-06-10T04:41:44.547Z,17.40
2019-06-10T04:44:14.973Z,17.58
2019-06-10T04:46:45.249Z,17.58
2019-06-10T04:49:15.942Z,17.61
2019-06-10T04:51:45.928Z,17.59
2019-06-10T04:54:15.977Z,17.59
2019-06-10T04:56:46.411Z,17.75
2019-06-10T04:59:16.288Z,17.70
2019-06-10T05:01:46.080Z,17.70
2019-06-10T05:04:16.430Z,17.70
2019-06-10T05:06:46.581Z,17.70
2019-06-10T05:09:16.495Z,17.70
2019-06-10T05:11:46.873Z,17.77
2019-06-10T05:14:17.054Z,17.77
2019-06-10T05:16:47.038Z,17.75
2019-06-10T05:19:17.183Z,17.79
2019-06-10T05:21:47.152Z,17.90
2019-06-10T05:24:17.122Z,17.90
2019-06-10T05:26:47.295Z,17.72
2019-06-10T05:29:17.498Z,17.75
2019-06-10T05:31:47.554Z,17.75
2019-06-10T05:34:18.094Z,18.00
2019-06-10T05:36:48.075Z,17.95
2019-06-10T05:39:18.108Z,17.95
2019-06-10T05:41:50.246Z,17.99
2019-06-10T05:44:19.794Z,18.23
2019-06-10T05:46:52.646Z,18.29
2019-06-10T05:49:24.150Z,18.29
2019-06-10T05:51:53.609Z,18.36
2019-06-10T05:54:26.398Z,18.50
2019-06-10T05:56:57.547Z,18.39
2019-06-10T05:59:27.807Z,18.50
2019-06-10T06:01:57.727Z,18.43
2019-06-10T06:04:32.572Z,18.36
2019-06-10T06:07:02.361Z,18.22
2019-06-10T06:09:33.873Z,18.22
2019-06-10T06:12:03.728Z,18.21
2019-06-10T06:14:34.697Z,18.27
2019-06-10T06:17:05.098Z,18.17
2019-06-10T06:19:37.379Z,18.17
2019-06-10T06:22:06.665Z,18.17
2019-06-10T06:24:37.877Z,18.46
2019-06-10T06:27:07.949Z,18.29
2019-06-10T06:29:42.957Z,18.24
2019-06-10T06:32:13.286Z,18.17
2019-06-10T06:34:43.288Z,18.17
2019-06-10T06:37:13.233Z,18.13
2019-06-10T06:39:43.537Z,18.19
2019-06-10T06:42:14.719Z,18.27
2019-06-10T06:44:44.574Z,18.11
2019-06-10T06:47:14.937Z,18.14
2019-06-10T06:49:44.939Z,18.14
2019-06-10T06:52:14.969Z,18.04
2019-06-10T06:54:45.333Z,18.02
2019-06-10T06:57:15.167Z,18.11
2019-06-10T06:59:45.459Z,18.19
2019-06-10T07:02:15.690Z,18.39
2019-06-10T07:04:45.699Z,18.39
2019-06-10T07:07:16.462Z,18.72
2019-06-10T07:09:46.867Z,18.72
2019-06-10T07:12:16.737Z,18.92
2019-06-10T07:14:46.594Z,18.76
2019-06-10T07:17:18.094Z,18.80
2019-06-10T07:19:48.142Z,18.80
2019-06-10T07:22:23.381Z,19.14
2019-06-10T07:24:53.290Z,19.25
2019-06-10T07:27:23.219Z,19.19
2019-06-10T07:29:53.356Z,19.14
2019-06-10T07:32:23.577Z,19.14
2019-06-10T07:34:53.637Z,19.13
2019-06-10T07:37:24.334Z,19.28
2019-06-10T07:39:54.386Z,19.07
2019-06-10T07:42:24.268Z,19.17
2019-06-10T07:44:54.490Z,19.49
2019-06-10T07:47:24.344Z,19.49
2019-06-10T07:49:55.113Z,19.26
2019-06-10T07:52:24.867Z,19.27
2019-06-10T07:54:54.844Z,19.53
2019-06-10T07:57:24.826Z,19.64
2019-06-10T07:59:56.461Z,19.64
2019-06-10T08:02:27.165Z,19.92
2019-06-10T08:04:57.563Z,20.26
2019-06-10T08:07:27.423Z,20.13
2019-06-10T08:09:58.651Z,20.13
2019-06-10T08:12:28.685Z,19.62
2019-06-10T08:14:58.981Z,19.68
2019-06-10T08:17:32.826Z,19.68
2019-06-10T08:20:03.070Z,19.90
2019-06-10T08:22:37.892Z,19.90
2019-06-10T08:25:04.983Z,20.26
2019-06-10T08:27:36.465Z,20.08
2019-06-10T08:30:18.571Z,20.62
2019-06-10T08:32:45.102Z,20.58
2019-06-10T08:35:13.614Z,20.40
2019-06-10T08:37:45.960Z,21.02
2019-06-10T08:40:15.570Z,21.16
2019-06-10T08:42:48.897Z,21.16
2019-06-10T08:45:19.262Z,20.74
2019-06-10T08:55:23.873Z,21.27
2019-06-10T08:57:51.556Z,21.27
2019-06-10T09:00:25.380Z,20.86
2019-06-10T09:02:53.965Z,20.86
2019-06-10T09:05:26.287Z,21.15
2019-06-10T09:07:56.967Z,21.15
2019-06-10T09:10:27.321Z,21.03
2019-06-10T09:12:57.763Z,20.96
2019-06-10T09:15:27.594Z,21.22
2019-06-10T09:17:57.393Z,21.39
2019-06-10T09:20:27.939Z,21.73
2019-06-10T09:23:16.920Z,21.66
2019-06-10T09:25:29.522Z,21.90
2019-06-10T09:28:04.798Z,22.08
2019-06-10T09:30:34.587Z,22.08
2019-06-10T09:33:04.922Z,22.13
2019-06-10T09:35:35.298Z,22.08
2019-06-10T09:38:26.459Z,21.87
2019-06-10T09:41:01.655Z,22.19
2019-06-10T09:43:30.130Z,22.25
2019-06-10T09:46:00.024Z,22.25
2019-06-10T09:48:30.273Z,22.25
2019-06-10T09:51:02.265Z,22.34
2019-06-10T09:53:41.384Z,22.34
2019-06-10T09:56:04.277Z,21.94
2019-06-10T09:58:34.208Z,21.94
2019-06-10T10:01:04.793Z,22.23
2019-06-10T10:03:37.354Z,22.23
2019-06-10T10:06:14.715Z,22.45
2019-06-10T10:08:44.652Z,22.49
2019-06-10T10:11:14.080Z,22.71
2019-06-10T10:13:47.420Z,22.59
2019-06-10T10:16:16.992Z,22.59
2019-06-10T10:18:51.830Z,23.08
2019-06-10T10:21:19.012Z,23.08
2019-06-10T10:24:01.070Z,22.99
2019-06-10T10:26:21.232Z,22.59
2019-06-10T10:28:54.121Z,22.87
2019-06-10T10:31:23.827Z,22.87
2019-06-10T10:33:55.726Z,22.42
2019-06-10T10:36:26.287Z,22.37
2019-06-10T10:38:56.064Z,22.93
2019-06-10T10:41:26.701Z,22.93
2019-06-10T10:43:58.491Z,22.70
2019-06-10T10:46:28.093Z,23.24
2019-06-10T10:48:58.137Z,23.24
2019-06-10T10:51:32.524Z,23.03
2019-06-10T10:54:20.737Z,23.48
2019-06-10T10:56:34.474Z,22.88
2019-06-10T10:59:07.260Z,23.07
2019-06-10T11:01:38.524Z,23.07
2019-06-10T11:04:13.478Z,23.26
2019-06-10T11:06:46.202Z,23.26
2019-06-10T11:09:17.256Z,23.48
2019-06-10T11:11:48.846Z,23.35
2019-06-10T11:14:23.015Z,23.35
2019-06-10T11:16:56.593Z,23.46
2019-06-10T11:19:26.077Z,23.67
2019-06-10T11:21:56.029Z,23.67
2019-06-10T11:24:36.379Z,23.33
2019-06-10T11:26:58.474Z,23.33
2019-06-10T11:29:28.332Z,23.91
2019-06-10T11:31:58.909Z,23.92
2019-06-10T11:34:30.052Z,23.92
2019-06-10T11:37:02.319Z,24.21
2019-06-10T11:39:33.831Z,24.50
2019-06-10T11:42:03.958Z,24.34
2019-06-10T11:44:34.066Z,24.34
2019-06-10T11:47:04.855Z,24.27
2019-06-10T11:49:35.020Z,24.34
2019-06-10T11:52:05.369Z,24.57
2019-06-10T11:54:51.688Z,24.57
2019-06-10T11:57:09.729Z,24.72
2019-06-10T11:59:39.496Z,24.46
2019-06-10T12:02:09.973Z,24.46
2019-06-10T12:04:40.007Z,25.03
2019-06-10T12:07:10.153Z,24.65
2019-06-10T12:09:42.530Z,24.46
2019-06-10T12:12:13.541Z,24.46
2019-06-10T12:14:55.289Z,24.52
2019-06-10T12:17:41.561Z,24.69
2019-06-10T12:20:02.521Z,25.00
2019-06-10T12:22:29.193Z,25.00
2019-06-10T12:25:24.898Z,24.75
2019-06-10T12:27:33.930Z,24.68
2019-06-10T12:30:07.435Z,24.80
2019-06-10T12:32:37.966Z,24.80
2019-06-10T12:35:08.944Z,24.74
2019-06-10T12:37:52.035Z,25.15
2019-06-10T12:40:28.606Z,25.38
2019-06-10T12:43:05.031Z,25.38
2019-06-10T12:45:36.282Z,25.29
2019-06-10T12:48:06.997Z,25.67
2019-06-10T12:50:43.752Z,25.67
2019-06-10T12:53:16.245Z,25.67
2019-06-10T12:55:48.257Z,25.02
2019-06-10T12:58:24.474Z,25.02
2019-06-10T13:00:55.604Z,25.03
2019-06-10T13:03:27.486Z,25.03
2019-06-10T13:06:02.359Z,25.75
2019-06-10T13:08:33.149Z,25.03
2019-06-10T13:11:04.084Z,25.63
2019-06-10T13:13:34.201Z,25.10
2019-06-10T13:16:08.278Z,25.23
2019-06-10T13:18:36.565Z,25.11
2019-06-10T13:21:11.891Z,24.92
2019-06-10T13:23:38.303Z,25.26
2019-06-10T13:26:13.125Z,25.26
2019-06-10T13:28:43.103Z,24.73
2019-06-10T13:31:12.007Z,24.77
2019-06-10T13:33:42.907Z,24.82
2019-06-10T13:36:13.569Z,25.07
2019-06-10T13:38:43.850Z,25.07
2019-06-10T13:41:13.548Z,24.37
2019-06-10T13:47:15.409Z,25.64
2019-06-10T13:50:25.013Z,24.68
2019-06-10T13:52:54.277Z,24.68
2019-06-10T13:55:28.691Z,25.37
2019-06-10T13:58:46.386Z,24.47
2019-06-10T14:02:24.627Z,24.55
2019-06-10T14:05:09.111Z,24.63
2019-06-10T14:08:31.897Z,24.38
2019-06-10T14:11:33.877Z,24.38
2019-06-10T14:14:18.467Z,24.61
2019-06-10T14:17:52.590Z,24.98
2019-06-10T14:24:02.103Z,24.41
2019-06-10T14:26:42.086Z,24.41
2019-06-10T14:29:15.605Z,25.07
2019-06-10T14:32:23.288Z,25.56
2019-06-10T14:34:55.619Z,25.51
2019-06-10T14:38:39.087Z,25.51
2019-06-10T14:41:12.361Z,25.69
2019-06-10T14:43:45.768Z,25.56
2019-06-10T14:47:13.997Z,25.34
2019-06-10T14:49:42.492Z,25.87
2019-06-10T14:52:56.459Z,25.76
2019-06-10T14:55:43.193Z,25.49
2019-06-10T14:58:23.684Z,25.47
2019-06-10T15:01:17.794Z,25.48
2019-06-10T15:03:52.528Z,25.62
2019-06-10T15:06:44.245Z,25.62
2019-06-10T15:09:16.663Z,25.68
2019-06-10T15:12:02.842Z,25.22
2019-06-10T15:17:42.890Z,25.27
2019-06-10T15:20:16.034Z,25.23
2019-06-10T15:22:52.652Z,25.23
2019-06-10T15:25:53.878Z,25.05
2019-06-10T15:32:06.056Z,25.01
2019-06-10T15:35:04.400Z,25.01
2019-06-10T15:41:15.011Z,24.59
2019-06-10T15:43:56.079Z,24.59
2019-06-10T15:46:43.271Z,24.52
2019-06-10T15:49:26.134Z,24.65
2019-06-10T15:52:18.756Z,24.42
2019-06-10T15:55:37.847Z,24.36
2019-06-10T15:57:50.211Z,24.16
2019-06-10T16:00:53.113Z,24.16
2019-06-10T16:03:35.492Z,24.12
2019-06-10T16:06:24.568Z,23.83
2019-06-10T16:09:03.013Z,23.94
2019-06-10T16:12:03.952Z,23.72
2019-06-10T16:18:16.642Z,23.96
2019-06-10T16:21:03.957Z,23.96
2019-06-10T16:23:53.484Z,23.96
2019-06-10T16:26:31.628Z,23.53
2019-06-10T16:29:03.162Z,23.53
2019-06-10T16:32:16.290Z,23.81
2019-06-10T16:34:47.864Z,22.91
2019-06-10T16:37:36.378Z,22.91
2019-06-10T16:40:43.144Z,23.00
2019-06-10T16:43:17.737Z,22.50
2019-06-10T16:46:33.322Z,22.51
2019-06-10T16:49:58.600Z,22.16
2019-06-10T16:52:44.992Z,21.94
2019-06-10T16:58:53.939Z,22.03
2019-06-10T17:01:46.063Z,21.87
2019-06-10T17:04:27.735Z,21.69
2019-06-10T17:07:04.647Z,21.75
2019-06-10T17:10:52.722Z,21.74
2019-06-10T17:13:10.375Z,21.74
2019-06-10T17:15:49.717Z,21.63
2019-06-10T17:18:30.151Z,21.63
2019-06-10T17:21:17.097Z,21.36
2019-06-10T17:23:52.546Z,21.46
2019-06-10T17:26:34.453Z,21.64
2019-06-10T17:29:04.066Z,21.64
2019-06-10T17:32:08.405Z,21.34
2019-06-10T17:34:57.400Z,21.09
2019-06-10T17:37:26.917Z,21.09
2019-06-10T17:40:14.091Z,21.23
2019-06-10T17:42:53.235Z,21.07
2019-06-10T17:45:32.519Z,21.06
2019-06-10T17:48:03.678Z,21.06
2019-06-10T17:50:35.199Z,21.06
2019-06-10T17:53:06.760Z,21.12
2019-06-10T17:55:36.541Z,21.13
2019-06-10T17:58:07.164Z,20.96
2019-06-10T18:00:37.192Z,20.78
2019-06-10T18:03:09.376Z,20.87
2019-06-10T18:05:42.390Z,20.76
2019-06-10T18:08:13.119Z,20.76
2019-06-10T18:10:45.994Z,20.72
2019-06-10T18:13:19.301Z,20.65
2019-06-10T18:15:53.437Z,20.50
2019-06-10T18:18:26.793Z,20.67
2019-06-10T18:20:58.690Z,20.67
2019-06-10T18:23:30.878Z,20.39
2019-06-10T18:26:03.270Z,20.21
2019-06-10T18:28:45.336Z,20.21
2019-06-10T18:31:05.639Z,20.15
2019-06-10T18:33:37.953Z,20.15
2019-06-10T18:36:15.451Z,20.17
2019-06-10T18:38:46.906Z,20.20
2019-06-10T18:41:19.331Z,19.95
2019-06-10T18:43:53.263Z,19.86
2019-06-10T18:46:27.911Z,19.86
2019-06-10T18:49:02.767Z,19.89
2019-06-10T18:51:35.582Z,19.89
2019-06-10T18:54:06.297Z,19.78
2019-06-10T18:56:37.362Z,19.87
2019-06-10T18:59:19.713Z,19.75
2019-06-10T19:01:48.037Z,19.73
2019-06-10T19:04:22.380Z,19.73
2019-06-10T19:06:52.895Z,19.66
2019-06-10T19:09:23.253Z,19.66
2019-06-10T19:11:54.187Z,19.51
2019-06-10T19:14:35.562Z,19.51
2019-06-10T19:17:12.431Z,19.50
2019-06-10T19:19:44.915Z,19.53
2019-06-10T19:22:15.555Z,19.19
2019-06-10T19:24:45.531Z,19.19
2019-06-10T19:27:18.488Z,19.28
2019-06-10T19:29:54.606Z,19.35
2019-06-10T19:32:27.522Z,19.34
2019-06-10T19:35:13.067Z,19.14
2019-06-10T19:37:44.553Z,19.22
2019-06-10T19:40:16.242Z,19.22
2019-06-10T19:42:49.505Z,19.13
2019-06-10T19:45:27.275Z,19.13
2019-06-10T19:47:59.026Z,19.04
2019-06-10T19:50:48.155Z,19.23
2019-06-10T19:53:17.122Z,19.20
2019-06-10T19:55:47.348Z,19.20
2019-06-10T19:58:17.962Z,19.23
2019-06-10T20:00:54.104Z,19.23
2019-06-10T20:03:22.435Z,19.14
2019-06-10T20:05:53.155Z,19.08
2019-06-10T20:08:23.353Z,19.07
2019-06-10T20:10:55.934Z,19.03
2019-06-10T20:13:26.515Z,19.20
2019-06-10T20:15:56.812Z,19.17
2019-06-10T20:18:28.732Z,19.19
2019-06-10T20:21:02.686Z,19.15
2019-06-10T20:23:35.481Z,19.15
2019-06-10T20:26:06.901Z,19.09
2019-06-10T20:28:38.579Z,19.12
2019-06-10T20:31:12.762Z,19.02
2019-06-10T20:33:43.801Z,18.93
2019-06-10T20:36:22.497Z,18.91
2019-06-10T20:38:53.470Z,18.91
2019-06-10T20:41:25.404Z,18.90
2019-06-10T20:43:56.630Z,18.95
2019-06-10T20:46:26.796Z,18.95
2019-06-10T20:48:58.061Z,18.98
2019-06-10T20:51:28.373Z,18.93
2019-06-10T20:53:58.402Z,18.76
2019-06-10T20:56:29.785Z,18.61
2019-06-10T20:59:02.795Z,18.65
2019-06-10T21:01:33.405Z,18.65
2019-06-10T21:04:03.988Z,18.61
2019-06-10T21:06:36.153Z,18.67
2019-06-10T21:09:13.528Z,18.48
2019-06-10T21:11:48.260Z,18.46
2019-06-10T21:14:17.525Z,18.46
2019-06-10T21:16:48.360Z,18.43
2019-06-10T21:19:18.950Z,18.43
2019-06-10T21:21:53.767Z,18.35
2019-06-10T21:24:23.148Z,18.35
2019-06-10T21:26:54.693Z,18.39
2019-06-10T21:29:24.675Z,18.39
2019-06-10T21:31:54.989Z,18.31
2019-06-10T21:34:25.914Z,18.28
2019-06-10T21:36:55.833Z,18.19
2019-06-10T21:39:25.780Z,18.19
2019-06-10T21:41:56.427Z,18.15
2019-06-10T21:44:26.301Z,18.32
2019-06-10T21:46:56.343Z,18.14
2019-06-10T21:49:26.399Z,18.15
2019-06-10T21:51:57.237Z,18.01
2019-06-10T21:54:27.148Z,17.91
2019-06-10T21:56:58.015Z,17.91
2019-06-10T21:59:27.802Z,17.84
2019-06-10T22:01:57.876Z,17.84
2019-06-10T22:04:27.585Z,17.84
2019-06-10T22:06:58.990Z,17.80
2019-06-10T22:09:28.903Z,17.79
2019-06-10T22:12:00.080Z,17.79
2019-06-10T22:14:32.848Z,17.79
2019-06-10T22:17:03.049Z,17.58
2019-06-10T22:19:32.899Z,17.68
2019-06-10T22:22:03.494Z,17.68
2019-06-10T22:24:33.188Z,17.65
2019-06-10T22:27:05.888Z,17.72
2019-06-10T22:29:35.884Z,17.42
2019-06-10T22:32:05.699Z,17.42
2019-06-10T22:34:35.388Z,17.45
2019-06-10T22:37:04.926Z,17.53
2019-06-10T22:39:35.020Z,17.36
2019-06-10T22:42:05.924Z,17.29
2019-06-10T22:44:35.885Z,17.25
2019-06-10T22:47:08.529Z,17.25
2019-06-10T22:49:43.187Z,17.16
2019-06-10T22:52:13.354Z,17.19
2019-06-10T22:54:43.223Z,17.17
2019-06-10T22:57:13.346Z,17.17
2019-06-10T22:59:43.262Z,17.29
2019-06-10T23:02:13.300Z,17.21
2019-06-10T23:04:43.568Z,17.21
2019-06-10T23:07:13.393Z,17.13
2019-06-10T23:09:43.240Z,17.15
2019-06-10T23:12:13.069Z,17.23
2019-06-10T23:14:43.379Z,17.23
2019-06-10T23:17:14.216Z,17.17
2019-06-10T23:19:44.126Z,17.09
2019-06-10T23:22:14.033Z,17.23
2019-06-10T23:24:43.894Z,17.23
2019-06-10T23:27:13.704Z,17.19
2019-06-10T23:29:45.302Z,17.13
2019-06-10T23:32:15.045Z,17.13
2019-06-10T23:34:45.047Z,17.04
2019-06-10T23:37:14.688Z,17.07
2019-06-10T23:39:46.026Z,17.10
2019-06-10T23:42:16.071Z,17.10
2019-06-10T23:44:45.858Z,17.08
2019-06-10T23:47:15.705Z,17.16
2019-06-10T23:49:45.933Z,17.05
2019-06-10T23:52:15.782Z,17.04
2019-06-10T23:54:45.680Z,17.04
2019-06-10T23:57:15.534Z,16.93
2019-06-10T23:59:45.544Z,16.98
